KN60

Garrison Airport

Garrison, North Dakota, USA
METAR KN60 210352Z AUTO 27005KT M06/M08 A2992 RMK AO1 SLP161 T10611083
Observed Flight Rules
Jan-21 @ 03:52 UTC (42 minutes ago)
Wind
270° at 5 knots
Temperatures Readings
Current -6°C / 21°F
Dewpoint -8°C / 18°F
Humidity 86%
Altimeter 29.92" Hg
Pressure 1016.1 hPa
Elevation 582
METAR KN60 210352Z AUTO 27005KT M06/M08 A2992 RMK AO1 SLP161 T10611083
Observed Flight Rules
Jan-21 @ 03:52 UTC
(42 minutes ago)
Wind
270° at 5 knots
Temperature Dewpoint
-6°C / 21°F -8°C / 18°F
Humidity Altimeter Pressure
86% 29.92" Hg 1016.1 hPa